sensor_id;sensor_type;location;lat;lon;timestamp;pressure;altitude;pressure_sealevel;temperature;humidity
47524;BME280;33253;42.144;25.884;2022-12-07T00:00:43;100721.50;;;7.45;100.00
47524;BME280;33253;42.144;25.884;2022-12-07T00:03:08;100726.44;;;7.42;100.00
47524;BME280;33253;42.144;25.884;2022-12-07T00:05:33;100714.97;;;7.36;100.00
47524;BME280;33253;42.144;25.884;2022-12-07T00:07:59;100709.56;;;7.15;100.00
47524;BME280;33253;42.144;25.884;2022-12-07T00:10:24;100707.19;;;7.03;100.00
47524;BME280;33253;42.144;25.884;2022-12-07T00:12:50;100733.44;;;7.13;100.00
47524;BME280;33253;42.144;25.884;2022-12-07T00:15:15;100734.59;;;7.19;100.00
47524;BME280;33253;42.144;25.884;2022-12-07T00:17:41;100729.91;;;7.26;100.00
47524;BME280;33253;42.144;25.884;2022-12-07T00:20:07;100726.69;;;7.31;100.00
47524;BME280;33253;42.144;25.884;2022-12-07T00:22:32;100699.09;;;7.11;100.00
47524;BME280;33253;42.144;25.884;2022-12-07T00:24:57;100718.06;;;7.13;100.00
47524;BME280;33253;42.144;25.884;2022-12-07T00:27:23;100727.00;;;7.20;100.00
47524;BME280;33253;42.144;25.884;2022-12-07T00:29:49;100700.53;;;7.06;100.00
47524;BME280;33253;42.144;25.884;2022-12-07T00:32:15;100720.41;;;7.25;100.00
47524;BME280;33253;42.144;25.884;2022-12-07T00:34:40;100731.03;;;7.32;100.00
47524;BME280;33253;42.144;25.884;2022-12-07T00:37:05;100727.00;;;7.37;100.00
47524;BME280;33253;42.144;25.884;2022-12-07T00:39:31;100705.22;;;7.30;100.00
47524;BME280;33253;42.144;25.884;2022-12-07T00:41:56;100716.59;;;7.50;100.00
47524;BME280;33253;42.144;25.884;2022-12-07T00:44:22;100724.53;;;7.55;100.00
47524;BME280;33253;42.144;25.884;2022-12-07T00:46:47;100721.31;;;7.42;100.00
47524;BME280;33253;42.144;25.884;2022-12-07T00:49:13;100722.50;;;7.01;100.00
47524;BME280;33253;42.144;25.884;2022-12-07T00:51:38;100726.59;;;6.97;100.00
47524;BME280;33253;42.144;25.884;2022-12-07T00:54:03;100722.97;;;6.94;100.00
47524;BME280;33253;42.144;25.884;2022-12-07T00:56:29;100721.00;;;7.05;100.00
47524;BME280;33253;42.144;25.884;2022-12-07T00:58:55;100720.13;;;7.04;100.00
47524;BME280;33253;42.144;25.884;2022-12-07T01:01:21;100700.31;;;7.02;100.00
47524;BME280;33253;42.144;25.884;2022-12-07T01:03:47;100702.09;;;7.19;100.00
47524;BME280;33253;42.144;25.884;2022-12-07T01:06:15;100700.66;;;7.24;100.00
47524;BME280;33253;42.144;25.884;2022-12-07T01:08:41;100708.97;;;7.35;100.00
47524;BME280;33253;42.144;25.884;2022-12-07T01:11:08;100697.63;;;7.32;100.00
47524;BME280;33253;42.144;25.884;2022-12-07T01:13:35;100698.75;;;7.20;100.00
47524;BME280;33253;42.144;25.884;2022-12-07T01:16:03;100696.31;;;7.23;100.00
47524;BME280;33253;42.144;25.884;2022-12-07T01:18:30;100682.81;;;7.11;100.00
47524;BME280;33253;42.144;25.884;2022-12-07T01:20:58;100697.13;;;7.22;100.00
47524;BME280;33253;42.144;25.884;2022-12-07T01:23:24;100695.00;;;7.15;100.00
47524;BME280;33253;42.144;25.884;2022-12-07T01:26:00;100678.78;;;7.00;100.00
47524;BME280;33253;42.144;25.884;2022-12-07T01:28:26;100670.34;;;6.86;100.00
47524;BME280;33253;42.144;25.884;2022-12-07T01:31:06;100681.28;;;6.98;100.00
47524;BME280;33253;42.144;25.884;2022-12-07T01:33:34;100685.50;;;6.97;100.00
47524;BME280;33253;42.144;25.884;2022-12-07T01:36:04;100652.63;;;6.90;100.00
47524;BME280;33253;42.144;25.884;2022-12-07T01:38:31;100686.69;;;7.19;100.00
47524;BME280;33253;42.144;25.884;2022-12-07T01:40:57;100684.34;;;7.24;100.00
47524;BME280;33253;42.144;25.884;2022-12-07T01:43:24;100694.16;;;7.31;100.00
47524;BME280;33253;42.144;25.884;2022-12-07T01:45:51;100675.31;;;7.31;100.00
47524;BME280;33253;42.144;25.884;2022-12-07T01:48:19;100679.00;;;7.36;100.00
47524;BME280;33253;42.144;25.884;2022-12-07T01:50:48;100674.59;;;7.33;100.00
47524;BME280;33253;42.144;25.884;2022-12-07T01:56:40;100677.16;;;7.17;100.00
47524;BME280;33253;42.144;25.884;2022-12-07T01:59:08;100669.19;;;7.12;100.00
47524;BME280;33253;42.144;25.884;2022-12-07T02:01:33;100672.81;;;7.16;100.00
47524;BME280;33253;42.144;25.884;2022-12-07T02:03:59;100671.84;;;7.13;100.00
47524;BME280;33253;42.144;25.884;2022-12-07T02:06:25;100667.69;;;7.16;100.00
47524;BME280;33253;42.144;25.884;2022-12-07T02:08:51;100667.22;;;7.23;100.00
47524;BME280;33253;42.144;25.884;2022-12-07T02:11:17;100621.59;;;7.02;100.00
47524;BME280;33253;42.144;25.884;2022-12-07T02:13:46;100659.66;;;7.26;100.00
47524;BME280;33253;42.144;25.884;2022-12-07T02:19:36;100663.34;;;7.31;100.00
47524;BME280;33253;42.144;25.884;2022-12-07T02:22:24;100663.81;;;7.24;100.00
47524;BME280;33253;42.144;25.884;2022-12-07T02:25:22;100652.53;;;7.20;100.00
47524;BME280;33253;42.144;25.884;2022-12-07T02:30:58;100645.28;;;7.13;100.00
47524;BME280;33253;42.144;25.884;2022-12-07T02:33:35;100639.75;;;7.22;100.00
47524;BME280;33253;42.144;25.884;2022-12-07T02:36:08;100643.59;;;7.30;100.00
47524;BME280;33253;42.144;25.884;2022-12-07T02:38:54;100638.78;;;7.36;100.00
47524;BME280;33253;42.144;25.884;2022-12-07T02:41:32;100632.31;;;7.43;100.00
47524;BME280;33253;42.144;25.884;2022-12-07T02:44:01;100638.38;;;7.45;100.00
47524;BME280;33253;42.144;25.884;2022-12-07T02:46:31;100635.41;;;7.37;100.00
47524;BME280;33253;42.144;25.884;2022-12-07T02:48:58;100625.56;;;7.28;100.00
47524;BME280;33253;42.144;25.884;2022-12-07T02:51:25;100588.22;;;7.02;100.00
47524;BME280;33253;42.144;25.884;2022-12-07T02:53:52;100635.09;;;7.31;100.00
47524;BME280;33253;42.144;25.884;2022-12-07T03:01:54;100627.56;;;7.34;100.00
47524;BME280;33253;42.144;25.884;2022-12-07T03:13:18;100594.41;;;7.22;100.00
47524;BME280;33253;42.144;25.884;2022-12-07T03:18:37;100627.00;;;7.40;100.00
47524;BME280;33253;42.144;25.884;2022-12-07T03:21:16;100637.03;;;7.35;100.00
47524;BME280;33253;42.144;25.884;2022-12-07T03:23:46;100593.53;;;7.05;100.00
47524;BME280;33253;42.144;25.884;2022-12-07T03:26:14;100621.72;;;7.20;100.00
47524;BME280;33253;42.144;25.884;2022-12-07T03:28:45;100603.09;;;7.08;100.00
47524;BME280;33253;42.144;25.884;2022-12-07T03:37:00;100638.56;;;7.32;100.00
47524;BME280;33253;42.144;25.884;2022-12-07T03:42:01;100627.56;;;7.34;100.00
47524;BME280;33253;42.144;25.884;2022-12-07T03:44:29;100624.91;;;7.33;100.00
47524;BME280;33253;42.144;25.884;2022-12-07T03:47:02;100634.22;;;7.47;100.00
47524;BME280;33253;42.144;25.884;2022-12-07T03:55:02;100638.88;;;7.54;100.00
47524;BME280;33253;42.144;25.884;2022-12-07T03:57:33;100636.78;;;7.47;100.00
47524;BME280;33253;42.144;25.884;2022-12-07T04:00:00;100632.44;;;7.46;100.00
47524;BME280;33253;42.144;25.884;2022-12-07T04:02:28;100613.94;;;7.35;100.00
47524;BME280;33253;42.144;25.884;2022-12-07T04:04:55;100621.63;;;7.35;100.00
47524;BME280;33253;42.144;25.884;2022-12-07T04:07:21;100620.19;;;7.40;100.00
47524;BME280;33253;42.144;25.884;2022-12-07T04:09:47;100622.81;;;7.42;100.00
47524;BME280;33253;42.144;25.884;2022-12-07T04:12:12;100623.38;;;7.36;100.00
47524;BME280;33253;42.144;25.884;2022-12-07T04:14:38;100617.13;;;7.15;100.00
47524;BME280;33253;42.144;25.884;2022-12-07T04:17:04;100614.16;;;7.23;100.00
47524;BME280;33253;42.144;25.884;2022-12-07T04:19:32;100614.47;;;7.29;100.00
47524;BME280;33253;42.144;25.884;2022-12-07T04:21:59;100608.88;;;7.20;100.00
47524;BME280;33253;42.144;25.884;2022-12-07T04:24:25;100609.09;;;7.08;100.00
47524;BME280;33253;42.144;25.884;2022-12-07T04:26:51;100595.28;;;7.06;100.00
47524;BME280;33253;42.144;25.884;2022-12-07T04:29:18;100615.69;;;7.20;100.00
47524;BME280;33253;42.144;25.884;2022-12-07T04:31:44;100611.03;;;7.29;100.00
47524;BME280;33253;42.144;25.884;2022-12-07T04:34:10;100613.75;;;7.32;100.00
47524;BME280;33253;42.144;25.884;2022-12-07T04:36:39;100620.81;;;7.36;100.00
47524;BME280;33253;42.144;25.884;2022-12-07T04:39:11;100613.34;;;7.41;100.00
47524;BME280;33253;42.144;25.884;2022-12-07T04:41:38;100613.22;;;7.38;100.00
47524;BME280;33253;42.144;25.884;2022-12-07T04:44:04;100630.53;;;7.42;100.00
47524;BME280;33253;42.144;25.884;2022-12-07T04:46:32;100627.47;;;7.33;100.00
47524;BME280;33253;42.144;25.884;2022-12-07T04:48:59;100629.75;;;7.26;100.00
47524;BME280;33253;42.144;25.884;2022-12-07T04:51:27;100615.41;;;7.15;100.00
47524;BME280;33253;42.144;25.884;2022-12-07T04:53:54;100640.38;;;7.18;100.00
47524;BME280;33253;42.144;25.884;2022-12-07T04:56:21;100630.59;;;7.10;100.00
47524;BME280;33253;42.144;25.884;2022-12-07T04:58:47;100627.13;;;7.10;100.00
47524;BME280;33253;42.144;25.884;2022-12-07T05:01:15;100634.03;;;7.11;100.00
47524;BME280;33253;42.144;25.884;2022-12-07T05:03:41;100631.00;;;7.18;100.00
47524;BME280;33253;42.144;25.884;2022-12-07T05:06:08;100625.81;;;7.17;100.00
47524;BME280;33253;42.144;25.884;2022-12-07T05:08:34;100629.25;;;7.17;100.00
47524;BME280;33253;42.144;25.884;2022-12-07T05:11:01;100626.19;;;7.24;100.00
47524;BME280;33253;42.144;25.884;2022-12-07T05:13:27;100615.84;;;7.23;100.00
47524;BME280;33253;42.144;25.884;2022-12-07T05:15:52;100630.13;;;7.34;100.00
47524;BME280;33253;42.144;25.884;2022-12-07T05:18:18;100628.75;;;7.41;100.00
47524;BME280;33253;42.144;25.884;2022-12-07T05:20:44;100621.97;;;7.41;100.00
47524;BME280;33253;42.144;25.884;2022-12-07T05:23:09;100621.31;;;7.45;100.00
47524;BME280;33253;42.144;25.884;2022-12-07T05:25:35;100584.53;;;7.30;100.00
47524;BME280;33253;42.144;25.884;2022-12-07T05:28:01;100624.13;;;7.50;100.00
47524;BME280;33253;42.144;25.884;2022-12-07T05:30:26;100625.13;;;7.54;100.00
47524;BME280;33253;42.144;25.884;2022-12-07T05:32:52;100623.47;;;7.54;100.00
47524;BME280;33253;42.144;25.884;2022-12-07T05:35:18;100615.81;;;7.56;100.00
47524;BME280;33253;42.144;25.884;2022-12-07T05:37:44;100620.16;;;7.57;100.00
47524;BME280;33253;42.144;25.884;2022-12-07T05:40:11;100631.91;;;7.52;100.00
47524;BME280;33253;42.144;25.884;2022-12-07T05:42:36;100641.47;;;7.38;100.00
47524;BME280;33253;42.144;25.884;2022-12-07T05:45:03;100636.72;;;7.29;100.00
47524;BME280;33253;42.144;25.884;2022-12-07T05:47:28;100626.34;;;7.27;100.00
47524;BME280;33253;42.144;25.884;2022-12-07T05:49:54;100636.72;;;7.29;100.00
47524;BME280;33253;42.144;25.884;2022-12-07T05:52:19;100593.38;;;7.02;100.00
47524;BME280;33253;42.144;25.884;2022-12-07T05:54:44;100592.38;;;7.00;100.00
47524;BME280;33253;42.144;25.884;2022-12-07T05:57:10;100635.66;;;7.25;100.00
47524;BME280;33253;42.144;25.884;2022-12-07T05:59:35;100628.03;;;7.27;100.00
47524;BME280;33253;42.144;25.884;2022-12-07T06:02:04;100631.59;;;7.29;100.00
47524;BME280;33253;42.144;25.884;2022-12-07T06:04:32;100633.09;;;7.25;100.00
47524;BME280;33253;42.144;25.884;2022-12-07T06:06:58;100636.63;;;7.27;100.00
47524;BME280;33253;42.144;25.884;2022-12-07T06:09:24;100592.00;;;7.09;100.00
47524;BME280;33253;42.144;25.884;2022-12-07T06:11:50;100638.56;;;7.32;100.00
47524;BME280;33253;42.144;25.884;2022-12-07T06:14:35;100633.91;;;7.24;100.00
47524;BME280;33253;42.144;25.884;2022-12-07T06:17:00;100626.13;;;7.23;100.00
47524;BME280;33253;42.144;25.884;2022-12-07T06:19:26;100600.19;;;7.18;100.00
47524;BME280;33253;42.144;25.884;2022-12-07T06:21:51;100633.81;;;7.39;100.00
47524;BME280;33253;42.144;25.884;2022-12-07T06:24:17;100621.22;;;7.44;100.00
47524;BME280;33253;42.144;25.884;2022-12-07T06:26:43;100624.75;;;7.46;100.00
47524;BME280;33253;42.144;25.884;2022-12-07T06:29:10;100627.63;;;7.52;100.00
47524;BME280;33253;42.144;25.884;2022-12-07T06:31:36;100618.25;;;7.53;100.00
47524;BME280;33253;42.144;25.884;2022-12-07T06:34:04;100620.31;;;7.60;100.00
47524;BME280;33253;42.144;25.884;2022-12-07T06:36:30;100618.66;;;7.60;100.00
47524;BME280;33253;42.144;25.884;2022-12-07T06:38:56;100622.00;;;7.59;100.00
47524;BME280;33253;42.144;25.884;2022-12-07T06:41:22;100634.63;;;7.55;100.00
47524;BME280;33253;42.144;25.884;2022-12-07T06:43:48;100633.34;;;7.47;100.00
47524;BME280;33253;42.144;25.884;2022-12-07T06:46:14;100643.84;;;7.51;100.00
47524;BME280;33253;42.144;25.884;2022-12-07T06:48:41;100634.41;;;7.50;100.00
47524;BME280;33253;42.144;25.884;2022-12-07T06:51:06;100643.59;;;7.63;100.00
47524;BME280;33253;42.144;25.884;2022-12-07T06:53:32;100640.63;;;7.72;100.00
47524;BME280;33253;42.144;25.884;2022-12-07T06:55:57;100637.31;;;7.74;100.00
47524;BME280;33253;42.144;25.884;2022-12-07T06:58:23;100615.72;;;7.71;100.00
47524;BME280;33253;42.144;25.884;2022-12-07T07:00:49;100637.88;;;7.85;100.00
47524;BME280;33253;42.144;25.884;2022-12-07T07:03:17;100604.88;;;7.76;100.00
47524;BME280;33253;42.144;25.884;2022-12-07T07:05:43;100644.16;;;8.08;100.00
47524;BME280;33253;42.144;25.884;2022-12-07T07:08:09;100645.13;;;8.10;100.00
47524;BME280;33253;42.144;25.884;2022-12-07T07:10:35;100609.31;;;7.97;100.00
47524;BME280;33253;42.144;25.884;2022-12-07T07:13:01;100651.75;;;8.23;100.00
47524;BME280;33253;42.144;25.884;2022-12-07T07:15:26;100644.94;;;8.24;100.00
47524;BME280;33253;42.144;25.884;2022-12-07T07:17:52;100642.13;;;8.19;100.00
47524;BME280;33253;42.144;25.884;2022-12-07T07:20:17;100653.69;;;8.28;100.00
47524;BME280;33253;42.144;25.884;2022-12-07T07:22:44;100646.78;;;8.26;100.00
47524;BME280;33253;42.144;25.884;2022-12-07T07:25:09;100646.53;;;8.22;100.00
47524;BME280;33253;42.144;25.884;2022-12-07T07:27:35;100645.66;;;8.21;100.00
47524;BME280;33253;42.144;25.884;2022-12-07T07:30:00;100645.66;;;8.21;100.00
47524;BME280;33253;42.144;25.884;2022-12-07T07:32:26;100610.72;;;7.90;100.00
47524;BME280;33253;42.144;25.884;2022-12-07T07:34:51;100602.41;;;7.78;100.00
47524;BME280;33253;42.144;25.884;2022-12-07T07:37:16;100648.06;;;8.00;100.00
47524;BME280;33253;42.144;25.884;2022-12-07T07:39:42;100613.72;;;7.82;100.00
47524;BME280;33253;42.144;25.884;2022-12-07T07:42:07;100644.75;;;8.03;100.00
47524;BME280;33253;42.144;25.884;2022-12-07T07:44:34;100631.41;;;7.93;100.00
47524;BME280;33253;42.144;25.884;2022-12-07T07:46:59;100654.00;;;7.99;100.00
47524;BME280;33253;42.144;25.884;2022-12-07T07:49:25;100652.84;;;8.10;100.00
47524;BME280;33253;42.144;25.884;2022-12-07T07:51:51;100655.22;;;8.24;100.00
47524;BME280;33253;42.144;25.884;2022-12-07T07:54:16;100658.72;;;8.26;100.00
47524;BME280;33253;42.144;25.884;2022-12-07T07:56:42;100653.75;;;8.29;100.00
47524;BME280;33253;42.144;25.884;2022-12-07T07:59:07;100647.00;;;8.31;100.00
47524;BME280;33253;42.144;25.884;2022-12-07T08:01:33;100650.38;;;8.30;100.00
47524;BME280;33253;42.144;25.884;2022-12-07T08:03:59;100652.28;;;8.34;100.00
47524;BME280;33253;42.144;25.884;2022-12-07T08:06:25;100611.84;;;8.14;100.00
47524;BME280;33253;42.144;25.884;2022-12-07T08:08:50;100662.75;;;8.37;100.00
47524;BME280;33253;42.144;25.884;2022-12-07T08:11:16;100643.84;;;8.37;100.00
47524;BME280;33253;42.144;25.884;2022-12-07T08:13:41;100653.38;;;8.39;100.00
47524;BME280;33253;42.144;25.884;2022-12-07T08:16:09;100647.56;;;8.43;100.00
47524;BME280;33253;42.144;25.884;2022-12-07T08:18:36;100659.09;;;8.50;100.00
47524;BME280;33253;42.144;25.884;2022-12-07T08:21:02;100660.88;;;8.51;100.00
47524;BME280;33253;42.144;25.884;2022-12-07T08:23:29;100625.81;;;8.37;100.00
47524;BME280;33253;42.144;25.884;2022-12-07T08:25:55;100656.16;;;8.61;100.00
47524;BME280;33253;42.144;25.884;2022-12-07T08:28:20;100647.63;;;8.62;100.00
47524;BME280;33253;42.144;25.884;2022-12-07T08:30:46;100639.69;;;8.57;100.00
47524;BME280;33253;42.144;25.884;2022-12-07T08:33:11;100643.44;;;8.64;100.00
47524;BME280;33253;42.144;25.884;2022-12-07T08:35:37;100645.84;;;8.61;100.00
47524;BME280;33253;42.144;25.884;2022-12-07T08:38:02;100637.47;;;8.65;100.00
47524;BME280;33253;42.144;25.884;2022-12-07T08:40:35;100638.03;;;8.77;100.00
47524;BME280;33253;42.144;25.884;2022-12-07T08:43:00;100641.66;;;8.81;100.00
47524;BME280;33253;42.144;25.884;2022-12-07T08:45:26;100643.03;;;8.92;100.00
47524;BME280;33253;42.144;25.884;2022-12-07T08:48:04;100602.16;;;8.80;100.00
47524;BME280;33253;42.144;25.884;2022-12-07T08:50:32;100628.34;;;9.09;100.00
47524;BME280;33253;42.144;25.884;2022-12-07T08:52:58;100590.78;;;8.95;100.00
47524;BME280;33253;42.144;25.884;2022-12-07T08:55:25;100631.38;;;9.18;100.00
47524;BME280;33253;42.144;25.884;2022-12-07T08:57:52;100631.22;;;9.15;100.00
47524;BME280;33253;42.144;25.884;2022-12-07T09:00:18;100623.81;;;9.23;100.00
47524;BME280;33253;42.144;25.884;2022-12-07T09:02:44;100604.13;;;9.23;100.00
47524;BME280;33253;42.144;25.884;2022-12-07T09:05:10;100616.56;;;9.34;100.00
47524;BME280;33253;42.144;25.884;2022-12-07T09:07:37;100619.16;;;9.34;100.00
47524;BME280;33253;42.144;25.884;2022-12-07T09:10:03;100616.69;;;9.37;100.00
47524;BME280;33253;42.144;25.884;2022-12-07T09:12:29;100618.13;;;9.50;100.00
47524;BME280;33253;42.144;25.884;2022-12-07T09:14:55;100570.94;;;9.31;100.00
47524;BME280;33253;42.144;25.884;2022-12-07T09:17:20;100607.28;;;9.57;100.00
47524;BME280;33253;42.144;25.884;2022-12-07T09:19:46;100614.38;;;9.63;100.00
47524;BME280;33253;42.144;25.884;2022-12-07T09:22:11;100592.81;;;9.61;100.00
47524;BME280;33253;42.144;25.884;2022-12-07T09:24:37;100599.19;;;9.69;100.00
47524;BME280;33253;42.144;25.884;2022-12-07T09:27:02;100595.59;;;9.65;100.00
47524;BME280;33253;42.144;25.884;2022-12-07T09:29:28;100596.75;;;9.72;100.00
47524;BME280;33253;42.144;25.884;2022-12-07T09:31:53;100595.16;;;9.76;100.00
47524;BME280;33253;42.144;25.884;2022-12-07T09:34:20;100589.13;;;9.75;100.00
47524;BME280;33253;42.144;25.884;2022-12-07T09:36:46;100587.38;;;9.74;100.00
47524;BME280;33253;42.144;25.884;2022-12-07T09:39:11;100580.19;;;9.67;100.00
47524;BME280;33253;42.144;25.884;2022-12-07T09:41:42;100580.06;;;9.64;100.00
47524;BME280;33253;42.144;25.884;2022-12-07T09:44:23;100567.50;;;9.71;100.00
47524;BME280;33253;42.144;25.884;2022-12-07T09:46:49;100578.31;;;9.84;100.00
47524;BME280;33253;42.144;25.884;2022-12-07T09:49:21;100579.53;;;9.92;100.00
47524;BME280;33253;42.144;25.884;2022-12-07T09:51:48;100569.28;;;9.94;100.00
47524;BME280;33253;42.144;25.884;2022-12-07T09:54:24;100569.47;;;9.98;100.00
47524;BME280;33253;42.144;25.884;2022-12-07T09:56:50;100561.22;;;10.07;100.00
47524;BME280;33253;42.144;25.884;2022-12-07T09:59:17;100555.75;;;9.99;100.00
47524;BME280;33253;42.144;25.884;2022-12-07T10:01:44;100563.97;;;10.12;100.00
47524;BME280;33253;42.144;25.884;2022-12-07T10:04:14;100553.59;;;10.10;100.00
47524;BME280;33253;42.144;25.884;2022-12-07T10:06:42;100544.69;;;10.02;100.00
47524;BME280;33253;42.144;25.884;2022-12-07T10:09:12;100555.81;;;10.01;100.00
47524;BME280;33253;42.144;25.884;2022-12-07T10:14:23;100518.47;;;9.70;100.00
47524;BME280;33253;42.144;25.884;2022-12-07T10:16:49;100557.63;;;9.82;100.00
47524;BME280;33253;42.144;25.884;2022-12-07T10:24:29;100544.25;;;9.70;100.00
47524;BME280;33253;42.144;25.884;2022-12-07T10:26:56;100548.75;;;9.76;100.00
47524;BME280;33253;42.144;25.884;2022-12-07T10:32:32;100541.22;;;9.80;100.00
47524;BME280;33253;42.144;25.884;2022-12-07T10:35:20;100534.72;;;9.69;100.00
47524;BME280;33253;42.144;25.884;2022-12-07T10:37:46;100538.38;;;9.74;100.00
47524;BME280;33253;42.144;25.884;2022-12-07T10:40:33;100533.94;;;9.70;100.00
47524;BME280;33253;42.144;25.884;2022-12-07T10:51:55;100519.91;;;9.84;100.00
47524;BME280;33253;42.144;25.884;2022-12-07T11:00:24;100516.94;;;9.75;100.00
47524;BME280;33253;42.144;25.884;2022-12-07T11:05:28;100516.69;;;9.69;100.00
47524;BME280;33253;42.144;25.884;2022-12-07T11:13:10;100502.53;;;9.80;100.00
47524;BME280;33253;42.144;25.884;2022-12-07T11:16:04;100502.69;;;9.83;100.00
47524;BME280;33253;42.144;25.884;2022-12-07T11:23:49;100482.25;;;10.11;100.00
47524;BME280;33253;42.144;25.884;2022-12-07T11:35:04;100466.13;;;10.16;100.00
47524;BME280;33253;42.144;25.884;2022-12-07T11:37:34;100471.56;;;10.24;100.00
47524;BME280;33253;42.144;25.884;2022-12-07T11:40:05;100467.06;;;10.18;100.00
47524;BME280;33253;42.144;25.884;2022-12-07T11:42:42;100452.16;;;10.11;100.00
47524;BME280;33253;42.144;25.884;2022-12-07T11:45:14;100460.28;;;10.20;100.00
47524;BME280;33253;42.144;25.884;2022-12-07T11:47:58;100463.78;;;10.23;100.00
47524;BME280;33253;42.144;25.884;2022-12-07T11:53:35;100449.78;;;10.39;100.00
47524;BME280;33253;42.144;25.884;2022-12-07T11:56:12;100453.38;;;10.42;100.00
47524;BME280;33253;42.144;25.884;2022-12-07T12:03:44;100439.94;;;10.51;100.00
47524;BME280;33253;42.144;25.884;2022-12-07T12:06:10;100440.03;;;10.54;100.00
47524;BME280;33253;42.144;25.884;2022-12-07T12:08:41;100424.75;;;10.60;100.00
47524;BME280;33253;42.144;25.884;2022-12-07T12:17:20;100422.34;;;10.65;100.00
47524;BME280;33253;42.144;25.884;2022-12-07T12:20:01;100414.59;;;10.65;100.00
47524;BME280;33253;42.144;25.884;2022-12-07T12:22:41;100413.66;;;10.63;100.00
47524;BME280;33253;42.144;25.884;2022-12-07T12:25:22;100406.75;;;10.62;100.00
47524;BME280;33253;42.144;25.884;2022-12-07T12:27:50;100403.34;;;10.63;100.00
47524;BME280;33253;42.144;25.884;2022-12-07T12:30:36;100405.81;;;10.60;100.00
47524;BME280;33253;42.144;25.884;2022-12-07T12:33:14;100403.63;;;10.46;100.00
47524;BME280;33253;42.144;25.884;2022-12-07T12:35:41;100412.94;;;10.43;100.00
47524;BME280;33253;42.144;25.884;2022-12-07T12:38:33;100402.63;;;10.43;100.00
47524;BME280;33253;42.144;25.884;2022-12-07T12:46:49;100410.34;;;10.65;100.00
47524;BME280;33253;42.144;25.884;2022-12-07T12:54:35;100400.81;;;10.40;100.00
47524;BME280;33253;42.144;25.884;2022-12-07T12:57:40;100403.84;;;10.30;100.00
47524;BME280;33253;42.144;25.884;2022-12-07T13:00:22;100404.16;;;10.15;100.00
47524;BME280;33253;42.144;25.884;2022-12-07T13:02:56;100390.09;;;10.07;100.00
47524;BME280;33253;42.144;25.884;2022-12-07T13:05:29;100365.34;;;9.89;100.00
47524;BME280;33253;42.144;25.884;2022-12-07T13:07:56;100398.38;;;10.20;100.00
47524;BME280;33253;42.144;25.884;2022-12-07T13:15:46;100396.91;;;10.51;100.00
47524;BME280;33253;42.144;25.884;2022-12-07T13:26:39;100407.84;;;10.68;100.00
47524;BME280;33253;42.144;25.884;2022-12-07T13:31:39;100408.25;;;10.79;100.00
47524;BME280;33253;42.144;25.884;2022-12-07T13:36:57;100410.00;;;10.80;100.00
47524;BME280;33253;42.144;25.884;2022-12-07T13:39:26;100410.59;;;10.73;100.00
47524;BME280;33253;42.144;25.884;2022-12-07T13:41:53;100409.63;;;10.70;100.00
47524;BME280;33253;42.144;25.884;2022-12-07T13:44:21;100414.78;;;10.70;100.00
47524;BME280;33253;42.144;25.884;2022-12-07T13:47:30;100411.59;;;10.77;100.00
47524;BME280;33253;42.144;25.884;2022-12-07T13:49:57;100402.09;;;10.76;100.00
47524;BME280;33253;42.144;25.884;2022-12-07T13:52:30;100409.88;;;10.77;100.00
47524;BME280;33253;42.144;25.884;2022-12-07T13:55:16;100401.97;;;10.73;100.00
47524;BME280;33253;42.144;25.884;2022-12-07T13:57:44;100393.84;;;10.62;100.00
47524;BME280;33253;42.144;25.884;2022-12-07T14:00:26;100403.56;;;10.69;100.00
47524;BME280;33253;42.144;25.884;2022-12-07T14:03:02;100409.78;;;10.50;100.00
47524;BME280;33253;42.144;25.884;2022-12-07T14:05:33;100410.00;;;10.33;100.00
47524;BME280;33253;42.144;25.884;2022-12-07T14:08:02;100375.50;;;10.07;100.00
47524;BME280;33253;42.144;25.884;2022-12-07T14:10:34;100413.00;;;10.22;100.00
47524;BME280;33253;42.144;25.884;2022-12-07T14:13:03;100415.28;;;10.14;100.00
47524;BME280;33253;42.144;25.884;2022-12-07T14:15:31;100410.56;;;10.02;100.00
47524;BME280;33253;42.144;25.884;2022-12-07T14:17:58;100418.88;;;9.95;100.00
47524;BME280;33253;42.144;25.884;2022-12-07T14:20:38;100421.41;;;9.93;100.00
47524;BME280;33253;42.144;25.884;2022-12-07T14:23:19;100420.41;;;9.90;100.00
47524;BME280;33253;42.144;25.884;2022-12-07T14:25:49;100415.13;;;9.86;100.00
47524;BME280;33253;42.144;25.884;2022-12-07T14:28:44;100416.06;;;9.88;100.00
47524;BME280;33253;42.144;25.884;2022-12-07T14:31:15;100408.63;;;9.96;100.00
47524;BME280;33253;42.144;25.884;2022-12-07T14:33:41;100396.47;;;9.94;100.00
47524;BME280;33253;42.144;25.884;2022-12-07T14:36:11;100411.44;;;10.02;100.00
47524;BME280;33253;42.144;25.884;2022-12-07T14:38:37;100415.78;;;10.03;100.00
47524;BME280;33253;42.144;25.884;2022-12-07T14:41:04;100409.63;;;10.00;100.00
47524;BME280;33253;42.144;25.884;2022-12-07T14:43:48;100418.31;;;10.02;100.00
47524;BME280;33253;42.144;25.884;2022-12-07T14:46:14;100418.63;;;10.11;100.00
47524;BME280;33253;42.144;25.884;2022-12-07T14:48:39;100417.25;;;10.19;100.00
47524;BME280;33253;42.144;25.884;2022-12-07T14:51:05;100408.56;;;10.17;100.00
47524;BME280;33253;42.144;25.884;2022-12-07T14:53:37;100414.03;;;10.27;100.00
47524;BME280;33253;42.144;25.884;2022-12-07T14:56:04;100393.88;;;10.16;100.00
47524;BME280;33253;42.144;25.884;2022-12-07T14:58:33;100413.31;;;10.29;100.00